Walnut Ridge, AR

2:33 PM CDT on March 28, 2017 (GMT -0500)
Walnut Ridge Regional | | Change Station
Active Advisory: Flood Warning

Elev 272 ft 36.13 °N, 90.92 °W | Updated 18 minutes ago

Partly Cloudy
Partly Cloudy
64 °F
Feels Like 64 °F
N
8
Wind Variable Wind from NNE

Today
High -- | Low -- °F
--% Chance of Precip.
Yesterday
High -- | Low -- °F
Precip. -- in
Pressure 30.03 in
Visibility 10.0 miles
Clouds Few 2400 ft
Dew Point 54 °F
Humidity 68%
Rainfall 0.00 in
Snow Depth Not available.
6:55 AM 7:22 PM
New Moon, 1% visible
METAR KARG 281915Z AUTO 03007KT 10SM FEW024 18/12 A3003 RMK AO1
Pressure 30.03 in
Visibility 10.0 miles
Clouds Few 2400 ft
Dew Point 54 °F
Humidity 68%
Rainfall 0.00 in
Snow Depth Not available.
6:55 AM 7:22 PM
New Moon, 1% visible
METAR KARG 281915Z AUTO 03007KT 10SM FEW024 18/12 A3003 RMK AO1

Get Your Daily Forecast Email!

Thanks for signing up!

Be on the lookout for a verification email in your inbox.

You'll start receiving severe weather alerts in your inbox..

×

10-Day Weather Forecast

Almanac

Astronomy

Mar. 28, 2017 Rise Set
Actual Time
Civil Twilight
Nautical Twilight
Astronomical Twilight
Moon
Length of Visible Light
Length of Day
Tomorrow will be .
, % of the Moon is Illuminated

Today's Extremes

State Highs State Lows

Community

WunderPhotos

Upload Photos

1,962,540 photos uploaded!

WunderBlog® & News

Nearby

Air Quality

  Air Quality AQ Index Pollutant
Not available.

Snow Depth

Station Depth Elevation

Earthquake Activity

City Distance Mag. Time & Date
Minimum magnitude displayed is 2.5.

Earthquake Activity

City Distance Mag. Time & Date
Minimum magnitude displayed is 2.5.

Coastal Water Temperatures

Place Temperature

Stations

Nearby Weather Stations

Station Location Temp. Windchill Dew Point Humidity Wind Precip. Elev Updated Type
                   

Watches & Warnings

Flood Warning
Issued: 10:25 AM CDT Mar. 28, 2017 – National Weather Service

... Flood Warning extended until further notice... the Flood Warning
continues for
the Black River at Black Rock.
* Until further notice... or until the warning is cancelled.
* At 9:00 am Tuesday the stage was 16.8 feet.
* Minor flooding is occurring and minor flooding is forecast.
* Flood stage is 14.0 feet.
* Forecast... the river will continue rising to near 18.5 feet by
Thursday morning.
* Impacts at 17.0 feet... low lying cultivated land and pastures in
Lawrence, Jackson, and Independence counties flood.




             Fld observed forecast 6 am
location stg stg day time Wed Thu Fri Sat sun

Black River
Black Rock 14 16.8 Tue 09 am 17.8 18.5 18.2 17.2 16.3




Lat... Lon 3570 9140 3591 9125 3612 9115 3610 9101
3588 9110 3564 9128




61